ROMMA est une association bénévole à but non lucratif. Votre soutien est indispensable : ADHERER à ROMMA ou FAIRE un DON

Trept - (38, Isère)

Plateau de Crémieu (265 m)   Longitude: 5° 19' 27" E   Latitude: 45° 41' 15"N Station partenaire n°94
 

Détail journalier du     <<     >>

Température Precipitation Humidité Pression Vent Dir Rafale Dir. rafale
Heure (°C) (mm) (%) (hPa) (km/h) (km/h)
01:00 16.206410201OSO6O
02:00 14.907010201OSO3OSO
03:00 13.607710201OSO3OSO
04:00 12.8077101903OSO
05:00 11.8081101903OSO
06:00 11.408210191OSO3OSO
07:00 10.7084101903OSO
08:00 11.308210191OSO3OSO
09:00 14.707710191OSO3OSO
10:00 18.705710192SSE8SSE
11:00 21.705010192S10SSE
12:00 23.604610184OSO13S
13:00 25.204210175SO16OSO
14:00 27.303310174NE15NO
15:00 28.003210165NO15NNO
16:00 28.203210154O16ONO
17:00 28.803010155NE16NO
18:00 28.302910155ONO16OSO
19:00 26.903110153NE13NNE
20:00 24.403910153NE8E
21:00 22.004610152NE6NE
22:00 20.205110151N5N
23:00 18.605710152N5N
minuit 17.306010151N5N

Graphique du 04-09-2019

 

Serveur OMMA